Boise, ID (83725)

12:43 AM MDT on October 22, 2014 (GMT -0600)
Mesa Vista | Change Station
CLOSE
Current Station
Personal Weather Station
Location: Boise, ID
Elevation: 2766 ft
Nearby Weather Stations

Elev 2766 ft 43.60 °N, 116.21 °W | Updated 9 seconds ago

Clear
Clear
38.7 °F
Feels Like 39 °F
N
0.0
Wind Variable Wind from WNW
Gusts 0.0 mph

Today
High -- | Low -- °F
--% Chance of Precip.
Yesterday
High -- | Low -- °F
Precip. -- in
8:07 AM 6:50 PM
Waning Crescent, 3% visible
Pressure 30.06 in
Visibility 10.0 miles
Clouds Clear
Windchill 39 °F
Dew Point 35 °F
Humidity 88%
Rainfall 0.00 in
Snow Depth Not available.
UV 0 out of 12
Pollen .40 out of 12
PM2.5 Good
Flu Activity Sporadic
METAR KBOI 220553Z 13008KT 10SM CLR 08/04 A3006 RMK AO2 SLP179 T00830039 10150 20083 53004

More Conditions Fewer Conditions

Pressure 30.06 in
Visibility 10.0 miles
Clouds Clear
Windchill 39 °F
Dew Point 35 °F
Humidity 88%
Rainfall 0.00 in
Snow Depth Not available.
UV 0 out of 12
Pollen .40 out of 12
PM2.5 Good
Flu Activity Sporadic
METAR KBOI 220553Z 13008KT 10SM CLR 08/04 A3006 RMK AO2 SLP179 T00830039 10150 20083 53004

More Conditions Fewer Conditions

10-Day Weather Forecast

Almanac

Astronomy

Oct. 22, 2014 Rise Set
Actual Time 8:07 AM MDT 6:50 PM MDT
Civil Twilight 7:38 AM MDT 7:19 PM MDT
Nautical Twilight 7:05 AM MDT 7:52 PM MDT
Astronomical Twilight 6:31 AM MDT 8:25 PM MDT
Moon 6:51 AM MDT 6:20 PM MDT
Length of Visible Light 11h 40m
Length of Day
10h 42m
Tomorrow will be 2m 48s shorter.
Waning Crescent, 3% of the Moon is Illuminated
Today
Waning Crescent
Oct 23
New
Oct 30
First Quarter
Nov 6
Full
Nov 14
Last Quarter

Community

WunderPhotos

Upload Photos

1,763,884 photos uploaded!

Nearby

Air Quality

  Air Quality AQ Index Pollutant
Yesterday Good
PM2.5
Yesterday Good
OZONE
Current Good
PM2.5
Tuesday Good
PM2.5
Tuesday Good
OZONE
Wednesday Good
OZONE
Wednesday Good
PM2.5
Thursday Good
OZONE

Snow Depth

Station Depth Elevation
Bogus Basin 0 in 6340 ft
Trinity Mountain 4 in 7770 ft
Jackson Peak 1 in 7070 ft
Camas Creek Divide 0 in 5710 ft
Atlanta Summit 3 in 7580 ft

Earthquake Activity

City Distance Mag. Time & Date
No recent earthquake activity has been reported nearby.
Minimum magnitude displayed is 2.5.

Coastal Water Temperatures

Place Temperature
No Stations Reporting

Nearby Weather Stations